sensor_id;sensor_type;location;lat;lon;timestamp;P1;durP1;ratioP1;P2;durP2;ratioP2
22068;SDS011;13887;57.196;-2.100;2023-03-14T00:00:24;12.70;;;12.30;;
22068;SDS011;13887;57.196;-2.100;2023-03-14T00:02:51;13.30;;;12.90;;
22068;SDS011;13887;57.196;-2.100;2023-03-14T00:05:22;13.00;;;12.60;;
22068;SDS011;13887;57.196;-2.100;2023-03-14T00:07:52;13.27;;;12.87;;
22068;SDS011;13887;57.196;-2.100;2023-03-14T00:10:19;13.30;;;12.90;;
22068;SDS011;13887;57.196;-2.100;2023-03-14T00:12:47;12.83;;;12.43;;
22068;SDS011;13887;57.196;-2.100;2023-03-14T00:15:14;13.03;;;12.63;;
22068;SDS011;13887;57.196;-2.100;2023-03-14T00:17:42;13.07;;;12.67;;
22068;SDS011;13887;57.196;-2.100;2023-03-14T00:20:11;13.10;;;12.70;;
22068;SDS011;13887;57.196;-2.100;2023-03-14T00:22:40;13.27;;;12.87;;
22068;SDS011;13887;57.196;-2.100;2023-03-14T00:25:09;13.00;;;12.60;;
22068;SDS011;13887;57.196;-2.100;2023-03-14T00:27:37;13.27;;;12.87;;
22068;SDS011;13887;57.196;-2.100;2023-03-14T00:30:05;13.10;;;12.70;;
22068;SDS011;13887;57.196;-2.100;2023-03-14T00:32:34;13.20;;;12.80;;
22068;SDS011;13887;57.196;-2.100;2023-03-14T00:35:02;13.03;;;12.63;;
22068;SDS011;13887;57.196;-2.100;2023-03-14T00:37:33;12.90;;;12.50;;
22068;SDS011;13887;57.196;-2.100;2023-03-14T00:40:01;12.83;;;12.43;;
22068;SDS011;13887;57.196;-2.100;2023-03-14T00:42:29;12.70;;;12.30;;
22068;SDS011;13887;57.196;-2.100;2023-03-14T00:44:58;12.80;;;12.40;;
22068;SDS011;13887;57.196;-2.100;2023-03-14T00:47:25;12.70;;;12.30;;
22068;SDS011;13887;57.196;-2.100;2023-03-14T00:49:52;12.87;;;12.47;;
22068;SDS011;13887;57.196;-2.100;2023-03-14T00:52:19;13.00;;;12.60;;
22068;SDS011;13887;57.196;-2.100;2023-03-14T00:54:47;13.10;;;12.70;;
22068;SDS011;13887;57.196;-2.100;2023-03-14T00:57:15;12.90;;;12.50;;
22068;SDS011;13887;57.196;-2.100;2023-03-14T00:59:42;12.67;;;12.27;;
22068;SDS011;13887;57.196;-2.100;2023-03-14T01:02:09;12.77;;;12.37;;
22068;SDS011;13887;57.196;-2.100;2023-03-14T01:04:39;13.03;;;12.63;;
22068;SDS011;13887;57.196;-2.100;2023-03-14T01:07:06;13.20;;;12.80;;
22068;SDS011;13887;57.196;-2.100;2023-03-14T01:09:33;13.20;;;12.80;;
22068;SDS011;13887;57.196;-2.100;2023-03-14T01:12:05;13.40;;;12.97;;
22068;SDS011;13887;57.196;-2.100;2023-03-14T01:14:32;12.87;;;12.47;;
22068;SDS011;13887;57.196;-2.100;2023-03-14T01:17:00;12.53;;;12.13;;
22068;SDS011;13887;57.196;-2.100;2023-03-14T01:19:28;12.80;;;12.40;;
22068;SDS011;13887;57.196;-2.100;2023-03-14T01:21:55;12.23;;;11.83;;
22068;SDS011;13887;57.196;-2.100;2023-03-14T01:24:22;12.77;;;12.37;;
22068;SDS011;13887;57.196;-2.100;2023-03-14T01:26:50;12.73;;;12.33;;
22068;SDS011;13887;57.196;-2.100;2023-03-14T01:29:21;12.50;;;12.10;;
22068;SDS011;13887;57.196;-2.100;2023-03-14T01:31:49;13.10;;;12.70;;
22068;SDS011;13887;57.196;-2.100;2023-03-14T01:34:19;13.17;;;12.77;;
22068;SDS011;13887;57.196;-2.100;2023-03-14T01:36:49;13.17;;;12.77;;
22068;SDS011;13887;57.196;-2.100;2023-03-14T01:39:16;13.27;;;12.87;;
22068;SDS011;13887;57.196;-2.100;2023-03-14T01:41:44;13.30;;;12.90;;
22068;SDS011;13887;57.196;-2.100;2023-03-14T01:44:13;13.17;;;12.77;;
22068;SDS011;13887;57.196;-2.100;2023-03-14T01:46:43;13.23;;;12.83;;
22068;SDS011;13887;57.196;-2.100;2023-03-14T01:54:38;13.60;;;13.10;;
22068;SDS011;13887;57.196;-2.100;2023-03-14T01:59:43;13.13;;;12.73;;
22068;SDS011;13887;57.196;-2.100;2023-03-14T02:02:18;14.00;;;13.50;;
22068;SDS011;13887;57.196;-2.100;2023-03-14T02:04:46;13.37;;;12.93;;
22068;SDS011;13887;57.196;-2.100;2023-03-14T02:07:21;14.00;;;13.50;;
22068;SDS011;13887;57.196;-2.100;2023-03-14T02:09:58;13.60;;;13.10;;
22068;SDS011;13887;57.196;-2.100;2023-03-14T02:12:29;12.93;;;12.53;;
22068;SDS011;13887;57.196;-2.100;2023-03-14T02:15:15;13.50;;;13.00;;
22068;SDS011;13887;57.196;-2.100;2023-03-14T02:18:12;13.00;;;12.60;;
22068;SDS011;13887;57.196;-2.100;2023-03-14T02:26:21;13.03;;;12.63;;
22068;SDS011;13887;57.196;-2.100;2023-03-14T02:28:53;12.93;;;12.53;;
22068;SDS011;13887;57.196;-2.100;2023-03-14T02:31:23;13.50;;;13.00;;
22068;SDS011;13887;57.196;-2.100;2023-03-14T02:33:50;13.10;;;12.70;;
22068;SDS011;13887;57.196;-2.100;2023-03-14T02:36:18;13.30;;;12.90;;
22068;SDS011;13887;57.196;-2.100;2023-03-14T02:39:06;13.17;;;12.77;;
22068;SDS011;13887;57.196;-2.100;2023-03-14T02:41:43;13.50;;;13.00;;
22068;SDS011;13887;57.196;-2.100;2023-03-14T02:44:12;13.23;;;12.83;;
22068;SDS011;13887;57.196;-2.100;2023-03-14T02:46:40;13.23;;;12.83;;
22068;SDS011;13887;57.196;-2.100;2023-03-14T02:49:12;13.40;;;12.93;;
22068;SDS011;13887;57.196;-2.100;2023-03-14T02:51:41;13.20;;;12.80;;
22068;SDS011;13887;57.196;-2.100;2023-03-14T02:54:09;13.07;;;12.67;;
22068;SDS011;13887;57.196;-2.100;2023-03-14T02:56:37;12.97;;;12.57;;
22068;SDS011;13887;57.196;-2.100;2023-03-14T02:59:06;12.97;;;12.57;;
22068;SDS011;13887;57.196;-2.100;2023-03-14T03:01:40;12.80;;;12.40;;
22068;SDS011;13887;57.196;-2.100;2023-03-14T03:04:08;13.23;;;12.83;;
22068;SDS011;13887;57.196;-2.100;2023-03-14T03:06:35;13.10;;;12.70;;
22068;SDS011;13887;57.196;-2.100;2023-03-14T03:09:02;13.57;;;13.07;;
22068;SDS011;13887;57.196;-2.100;2023-03-14T03:11:32;13.10;;;12.70;;
22068;SDS011;13887;57.196;-2.100;2023-03-14T03:14:04;12.93;;;12.53;;
22068;SDS011;13887;57.196;-2.100;2023-03-14T03:16:32;12.80;;;12.40;;
22068;SDS011;13887;57.196;-2.100;2023-03-14T03:18:59;13.13;;;12.73;;
22068;SDS011;13887;57.196;-2.100;2023-03-14T03:21:26;13.10;;;12.70;;
22068;SDS011;13887;57.196;-2.100;2023-03-14T03:23:54;13.20;;;12.80;;
22068;SDS011;13887;57.196;-2.100;2023-03-14T03:26:21;13.00;;;12.60;;
22068;SDS011;13887;57.196;-2.100;2023-03-14T03:28:50;13.57;;;13.07;;
22068;SDS011;13887;57.196;-2.100;2023-03-14T03:31:18;13.00;;;12.60;;
22068;SDS011;13887;57.196;-2.100;2023-03-14T03:33:46;13.40;;;12.93;;
22068;SDS011;13887;57.196;-2.100;2023-03-14T03:36:13;13.37;;;12.97;;
22068;SDS011;13887;57.196;-2.100;2023-03-14T03:38:47;13.30;;;12.90;;
22068;SDS011;13887;57.196;-2.100;2023-03-14T03:41:16;12.93;;;12.53;;
22068;SDS011;13887;57.196;-2.100;2023-03-14T03:43:43;13.20;;;12.80;;
22068;SDS011;13887;57.196;-2.100;2023-03-14T03:46:13;12.80;;;12.40;;
22068;SDS011;13887;57.196;-2.100;2023-03-14T03:48:40;12.80;;;12.40;;
22068;SDS011;13887;57.196;-2.100;2023-03-14T03:51:11;13.00;;;12.60;;
22068;SDS011;13887;57.196;-2.100;2023-03-14T03:53:40;13.40;;;12.93;;
22068;SDS011;13887;57.196;-2.100;2023-03-14T03:56:10;13.30;;;12.90;;
22068;SDS011;13887;57.196;-2.100;2023-03-14T03:58:39;12.77;;;12.37;;
22068;SDS011;13887;57.196;-2.100;2023-03-14T04:01:06;13.27;;;12.87;;
22068;SDS011;13887;57.196;-2.100;2023-03-14T04:03:34;13.67;;;13.17;;
22068;SDS011;13887;57.196;-2.100;2023-03-14T04:06:03;13.30;;;12.90;;
22068;SDS011;13887;57.196;-2.100;2023-03-14T04:08:34;13.83;;;13.33;;
22068;SDS011;13887;57.196;-2.100;2023-03-14T04:11:02;13.80;;;13.30;;
22068;SDS011;13887;57.196;-2.100;2023-03-14T04:13:51;14.27;;;13.77;;
22068;SDS011;13887;57.196;-2.100;2023-03-14T04:16:22;14.60;;;14.10;;
22068;SDS011;13887;57.196;-2.100;2023-03-14T04:19:03;14.50;;;14.00;;
22068;SDS011;13887;57.196;-2.100;2023-03-14T04:21:31;14.13;;;13.63;;
22068;SDS011;13887;57.196;-2.100;2023-03-14T04:23:58;14.23;;;13.73;;
22068;SDS011;13887;57.196;-2.100;2023-03-14T04:26:29;14.60;;;14.10;;
22068;SDS011;13887;57.196;-2.100;2023-03-14T04:28:57;14.20;;;13.70;;
22068;SDS011;13887;57.196;-2.100;2023-03-14T04:31:24;14.23;;;13.73;;
22068;SDS011;13887;57.196;-2.100;2023-03-14T04:33:52;14.00;;;13.50;;
22068;SDS011;13887;57.196;-2.100;2023-03-14T04:36:30;14.20;;;13.70;;
22068;SDS011;13887;57.196;-2.100;2023-03-14T04:39:02;14.07;;;13.57;;
22068;SDS011;13887;57.196;-2.100;2023-03-14T04:41:34;13.80;;;13.30;;
22068;SDS011;13887;57.196;-2.100;2023-03-14T04:44:01;14.30;;;13.80;;
22068;SDS011;13887;57.196;-2.100;2023-03-14T04:46:28;14.30;;;13.80;;
22068;SDS011;13887;57.196;-2.100;2023-03-14T04:48:56;13.90;;;13.40;;
22068;SDS011;13887;57.196;-2.100;2023-03-14T04:51:23;13.77;;;13.27;;
22068;SDS011;13887;57.196;-2.100;2023-03-14T04:53:53;13.97;;;13.47;;
22068;SDS011;13887;57.196;-2.100;2023-03-14T04:56:21;13.87;;;13.37;;
22068;SDS011;13887;57.196;-2.100;2023-03-14T04:58:49;13.83;;;13.33;;
22068;SDS011;13887;57.196;-2.100;2023-03-14T05:01:18;13.37;;;12.93;;
22068;SDS011;13887;57.196;-2.100;2023-03-14T05:04:05;13.80;;;13.30;;
22068;SDS011;13887;57.196;-2.100;2023-03-14T05:06:53;14.00;;;13.50;;
22068;SDS011;13887;57.196;-2.100;2023-03-14T05:09:38;13.70;;;13.20;;
22068;SDS011;13887;57.196;-2.100;2023-03-14T05:12:29;14.30;;;13.80;;
22068;SDS011;13887;57.196;-2.100;2023-03-14T05:15:16;14.13;;;13.63;;
22068;SDS011;13887;57.196;-2.100;2023-03-14T05:18:02;13.87;;;13.37;;
22068;SDS011;13887;57.196;-2.100;2023-03-14T05:20:54;13.87;;;13.37;;
22068;SDS011;13887;57.196;-2.100;2023-03-14T05:23:42;13.60;;;13.10;;
22068;SDS011;13887;57.196;-2.100;2023-03-14T05:26:29;14.07;;;13.57;;
22068;SDS011;13887;57.196;-2.100;2023-03-14T05:29:17;13.87;;;13.37;;
22068;SDS011;13887;57.196;-2.100;2023-03-14T05:31:56;13.70;;;13.20;;
22068;SDS011;13887;57.196;-2.100;2023-03-14T05:34:31;14.00;;;13.50;;
22068;SDS011;13887;57.196;-2.100;2023-03-14T05:37:26;13.60;;;13.10;;
22068;SDS011;13887;57.196;-2.100;2023-03-14T05:40:06;14.10;;;13.60;;
22068;SDS011;13887;57.196;-2.100;2023-03-14T05:42:50;14.00;;;13.50;;
22068;SDS011;13887;57.196;-2.100;2023-03-14T05:45:36;14.60;;;14.10;;
22068;SDS011;13887;57.196;-2.100;2023-03-14T05:48:03;14.40;;;13.90;;
22068;SDS011;13887;57.196;-2.100;2023-03-14T05:51:06;13.90;;;13.40;;
22068;SDS011;13887;57.196;-2.100;2023-03-14T05:53:44;13.90;;;13.40;;
22068;SDS011;13887;57.196;-2.100;2023-03-14T05:56:32;14.13;;;13.63;;
22068;SDS011;13887;57.196;-2.100;2023-03-14T05:59:24;14.20;;;13.70;;
22068;SDS011;13887;57.196;-2.100;2023-03-14T06:02:00;13.30;;;12.90;;
22068;SDS011;13887;57.196;-2.100;2023-03-14T06:04:36;13.87;;;13.37;;
22068;SDS011;13887;57.196;-2.100;2023-03-14T06:07:06;14.37;;;13.87;;
22068;SDS011;13887;57.196;-2.100;2023-03-14T06:09:33;14.13;;;13.63;;
22068;SDS011;13887;57.196;-2.100;2023-03-14T06:12:03;14.20;;;13.70;;
22068;SDS011;13887;57.196;-2.100;2023-03-14T06:14:36;14.40;;;13.90;;
22068;SDS011;13887;57.196;-2.100;2023-03-14T06:17:04;14.40;;;13.90;;
22068;SDS011;13887;57.196;-2.100;2023-03-14T06:19:37;14.67;;;14.17;;
22068;SDS011;13887;57.196;-2.100;2023-03-14T06:22:04;14.27;;;13.77;;
22068;SDS011;13887;57.196;-2.100;2023-03-14T06:24:38;14.43;;;13.93;;
22068;SDS011;13887;57.196;-2.100;2023-03-14T06:27:05;14.60;;;14.10;;
22068;SDS011;13887;57.196;-2.100;2023-03-14T06:29:32;15.13;;;14.63;;
22068;SDS011;13887;57.196;-2.100;2023-03-14T06:32:01;14.83;;;14.33;;
22068;SDS011;13887;57.196;-2.100;2023-03-14T06:34:28;14.70;;;14.20;;
22068;SDS011;13887;57.196;-2.100;2023-03-14T06:36:57;14.80;;;14.30;;
22068;SDS011;13887;57.196;-2.100;2023-03-14T06:39:24;14.80;;;14.30;;
22068;SDS011;13887;57.196;-2.100;2023-03-14T06:42:00;14.87;;;14.37;;
22068;SDS011;13887;57.196;-2.100;2023-03-14T06:44:29;14.77;;;14.27;;
22068;SDS011;13887;57.196;-2.100;2023-03-14T06:46:56;14.30;;;13.80;;
22068;SDS011;13887;57.196;-2.100;2023-03-14T06:49:24;14.40;;;13.90;;
22068;SDS011;13887;57.196;-2.100;2023-03-14T06:51:53;14.50;;;14.00;;
22068;SDS011;13887;57.196;-2.100;2023-03-14T06:54:23;14.10;;;13.60;;
22068;SDS011;13887;57.196;-2.100;2023-03-14T06:56:53;14.60;;;14.10;;
22068;SDS011;13887;57.196;-2.100;2023-03-14T06:59:20;14.37;;;13.87;;
22068;SDS011;13887;57.196;-2.100;2023-03-14T07:01:53;13.70;;;13.20;;
22068;SDS011;13887;57.196;-2.100;2023-03-14T07:04:20;14.30;;;13.80;;
22068;SDS011;13887;57.196;-2.100;2023-03-14T07:06:51;14.17;;;13.67;;
22068;SDS011;13887;57.196;-2.100;2023-03-14T07:09:18;13.50;;;13.07;;
22068;SDS011;13887;57.196;-2.100;2023-03-14T07:11:51;13.83;;;13.33;;
22068;SDS011;13887;57.196;-2.100;2023-03-14T07:14:19;14.07;;;13.57;;
22068;SDS011;13887;57.196;-2.100;2023-03-14T07:16:51;14.30;;;13.80;;
22068;SDS011;13887;57.196;-2.100;2023-03-14T07:19:18;13.90;;;13.40;;
22068;SDS011;13887;57.196;-2.100;2023-03-14T07:21:45;13.97;;;13.47;;
22068;SDS011;13887;57.196;-2.100;2023-03-14T07:24:14;14.10;;;13.60;;
22068;SDS011;13887;57.196;-2.100;2023-03-14T07:26:44;13.33;;;12.93;;
22068;SDS011;13887;57.196;-2.100;2023-03-14T07:29:11;13.87;;;13.37;;
22068;SDS011;13887;57.196;-2.100;2023-03-14T07:31:39;13.40;;;13.00;;
22068;SDS011;13887;57.196;-2.100;2023-03-14T07:34:06;14.00;;;13.50;;
22068;SDS011;13887;57.196;-2.100;2023-03-14T07:36:38;14.13;;;13.63;;
22068;SDS011;13887;57.196;-2.100;2023-03-14T07:39:06;13.90;;;13.40;;
22068;SDS011;13887;57.196;-2.100;2023-03-14T07:41:51;13.60;;;13.10;;
22068;SDS011;13887;57.196;-2.100;2023-03-14T07:44:23;13.27;;;12.87;;
22068;SDS011;13887;57.196;-2.100;2023-03-14T07:46:51;13.70;;;13.20;;
22068;SDS011;13887;57.196;-2.100;2023-03-14T07:49:18;13.50;;;13.00;;
22068;SDS011;13887;57.196;-2.100;2023-03-14T07:51:49;14.00;;;13.50;;
22068;SDS011;13887;57.196;-2.100;2023-03-14T07:54:16;13.87;;;13.37;;
22068;SDS011;13887;57.196;-2.100;2023-03-14T07:56:46;13.97;;;13.47;;
22068;SDS011;13887;57.196;-2.100;2023-03-14T07:59:13;13.77;;;13.27;;
22068;SDS011;13887;57.196;-2.100;2023-03-14T08:01:40;13.60;;;13.10;;
22068;SDS011;13887;57.196;-2.100;2023-03-14T08:04:07;12.00;;;11.60;;
22068;SDS011;13887;57.196;-2.100;2023-03-14T08:06:35;13.53;;;13.03;;
22068;SDS011;13887;57.196;-2.100;2023-03-14T08:09:03;13.50;;;13.00;;
22068;SDS011;13887;57.196;-2.100;2023-03-14T08:11:31;13.70;;;13.20;;
22068;SDS011;13887;57.196;-2.100;2023-03-14T08:13:58;13.60;;;13.10;;
22068;SDS011;13887;57.196;-2.100;2023-03-14T08:16:25;13.53;;;13.07;;
22068;SDS011;13887;57.196;-2.100;2023-03-14T08:18:52;14.00;;;13.50;;
22068;SDS011;13887;57.196;-2.100;2023-03-14T08:21:19;13.67;;;13.17;;
22068;SDS011;13887;57.196;-2.100;2023-03-14T08:23:46;13.57;;;13.07;;
22068;SDS011;13887;57.196;-2.100;2023-03-14T08:26:13;13.50;;;13.00;;
22068;SDS011;13887;57.196;-2.100;2023-03-14T08:28:40;13.40;;;12.93;;
22068;SDS011;13887;57.196;-2.100;2023-03-14T08:31:07;12.17;;;11.77;;
22068;SDS011;13887;57.196;-2.100;2023-03-14T08:33:35;12.83;;;12.43;;
22068;SDS011;13887;57.196;-2.100;2023-03-14T08:36:02;12.60;;;12.20;;
22068;SDS011;13887;57.196;-2.100;2023-03-14T08:38:29;12.60;;;12.20;;
22068;SDS011;13887;57.196;-2.100;2023-03-14T08:40:58;13.07;;;12.67;;
22068;SDS011;13887;57.196;-2.100;2023-03-14T08:43:27;12.87;;;12.47;;
22068;SDS011;13887;57.196;-2.100;2023-03-14T08:45:58;13.10;;;12.70;;
22068;SDS011;13887;57.196;-2.100;2023-03-14T08:48:26;12.83;;;12.43;;
22068;SDS011;13887;57.196;-2.100;2023-03-14T08:51:05;12.83;;;12.43;;
22068;SDS011;13887;57.196;-2.100;2023-03-14T08:53:33;12.80;;;12.40;;
22068;SDS011;13887;57.196;-2.100;2023-03-14T08:56:00;12.80;;;12.40;;
22068;SDS011;13887;57.196;-2.100;2023-03-14T08:58:27;12.30;;;11.90;;
22068;SDS011;13887;57.196;-2.100;2023-03-14T09:00:55;13.00;;;12.60;;
22068;SDS011;13887;57.196;-2.100;2023-03-14T09:03:24;14.30;;;13.80;;
22068;SDS011;13887;57.196;-2.100;2023-03-14T09:05:51;13.10;;;12.70;;
22068;SDS011;13887;57.196;-2.100;2023-03-14T09:08:21;13.53;;;13.03;;
22068;SDS011;13887;57.196;-2.100;2023-03-14T09:10:48;14.33;;;13.83;;
22068;SDS011;13887;57.196;-2.100;2023-03-14T09:13:15;14.00;;;13.50;;
22068;SDS011;13887;57.196;-2.100;2023-03-14T09:15:42;13.60;;;13.10;;
22068;SDS011;13887;57.196;-2.100;2023-03-14T09:18:12;13.50;;;13.00;;
22068;SDS011;13887;57.196;-2.100;2023-03-14T09:20:39;13.10;;;12.70;;
22068;SDS011;13887;57.196;-2.100;2023-03-14T09:23:07;13.70;;;13.20;;
22068;SDS011;13887;57.196;-2.100;2023-03-14T09:25:34;13.60;;;13.10;;
22068;SDS011;13887;57.196;-2.100;2023-03-14T09:28:01;13.20;;;12.80;;
22068;SDS011;13887;57.196;-2.100;2023-03-14T09:30:29;12.73;;;12.33;;
22068;SDS011;13887;57.196;-2.100;2023-03-14T09:32:56;12.50;;;12.10;;
22068;SDS011;13887;57.196;-2.100;2023-03-14T09:35:24;13.50;;;13.00;;
22068;SDS011;13887;57.196;-2.100;2023-03-14T09:37:52;13.70;;;13.20;;
22068;SDS011;13887;57.196;-2.100;2023-03-14T09:40:20;13.53;;;13.03;;
22068;SDS011;13887;57.196;-2.100;2023-03-14T09:42:50;13.00;;;12.60;;
22068;SDS011;13887;57.196;-2.100;2023-03-14T09:47:55;12.90;;;12.50;;
22068;SDS011;13887;57.196;-2.100;2023-03-14T09:50:26;13.47;;;12.97;;
22068;SDS011;13887;57.196;-2.100;2023-03-14T09:53:01;13.70;;;13.20;;
22068;SDS011;13887;57.196;-2.100;2023-03-14T09:55:31;13.10;;;12.70;;
22068;SDS011;13887;57.196;-2.100;2023-03-14T09:58:03;12.43;;;12.03;;
22068;SDS011;13887;57.196;-2.100;2023-03-14T10:00:37;12.80;;;12.40;;
22068;SDS011;13887;57.196;-2.100;2023-03-14T10:03:19;13.37;;;12.87;;
22068;SDS011;13887;57.196;-2.100;2023-03-14T10:05:48;13.67;;;13.17;;
22068;SDS011;13887;57.196;-2.100;2023-03-14T10:08:15;13.43;;;12.93;;
22068;SDS011;13887;57.196;-2.100;2023-03-14T10:10:42;12.67;;;12.27;;
22068;SDS011;13887;57.196;-2.100;2023-03-14T10:13:16;12.77;;;12.37;;
22068;SDS011;13887;57.196;-2.100;2023-03-14T10:16:05;12.87;;;12.47;;
22068;SDS011;13887;57.196;-2.100;2023-03-14T10:18:33;12.63;;;12.23;;
22068;SDS011;13887;57.196;-2.100;2023-03-14T10:21:16;12.93;;;12.53;;
22068;SDS011;13887;57.196;-2.100;2023-03-14T10:23:45;12.57;;;12.17;;
22068;SDS011;13887;57.196;-2.100;2023-03-14T10:26:18;13.10;;;12.70;;
22068;SDS011;13887;57.196;-2.100;2023-03-14T10:28:53;12.90;;;12.50;;
22068;SDS011;13887;57.196;-2.100;2023-03-14T10:31:35;13.10;;;12.70;;
22068;SDS011;13887;57.196;-2.100;2023-03-14T10:34:24;12.77;;;12.37;;
22068;SDS011;13887;57.196;-2.100;2023-03-14T10:36:58;13.00;;;12.60;;
22068;SDS011;13887;57.196;-2.100;2023-03-14T10:39:46;12.60;;;12.20;;
22068;SDS011;13887;57.196;-2.100;2023-03-14T10:42:19;12.77;;;12.37;;
22068;SDS011;13887;57.196;-2.100;2023-03-14T10:44:54;12.90;;;12.50;;
22068;SDS011;13887;57.196;-2.100;2023-03-14T10:47:23;12.40;;;12.00;;
22068;SDS011;13887;57.196;-2.100;2023-03-14T10:49:55;12.57;;;12.17;;
22068;SDS011;13887;57.196;-2.100;2023-03-14T10:52:27;12.60;;;12.20;;
22068;SDS011;13887;57.196;-2.100;2023-03-14T10:55:02;12.60;;;12.20;;
22068;SDS011;13887;57.196;-2.100;2023-03-14T10:57:39;12.37;;;11.97;;
22068;SDS011;13887;57.196;-2.100;2023-03-14T11:00:21;12.37;;;11.97;;
22068;SDS011;13887;57.196;-2.100;2023-03-14T11:02:54;12.13;;;11.73;;
22068;SDS011;13887;57.196;-2.100;2023-03-14T11:05:43;11.97;;;11.57;;
22068;SDS011;13887;57.196;-2.100;2023-03-14T11:10:54;11.80;;;11.40;;
22068;SDS011;13887;57.196;-2.100;2023-03-14T11:13:40;12.00;;;11.60;;
22068;SDS011;13887;57.196;-2.100;2023-03-14T11:21:35;12.00;;;11.60;;
22068;SDS011;13887;57.196;-2.100;2023-03-14T11:27:14;12.13;;;11.73;;
22068;SDS011;13887;57.196;-2.100;2023-03-14T11:32:21;12.10;;;11.70;;
22068;SDS011;13887;57.196;-2.100;2023-03-14T11:34:54;11.63;;;11.23;;
22068;SDS011;13887;57.196;-2.100;2023-03-14T11:37:27;11.47;;;11.07;;
22068;SDS011;13887;57.196;-2.100;2023-03-14T11:40:10;12.20;;;11.80;;
22068;SDS011;13887;57.196;-2.100;2023-03-14T11:42:55;12.07;;;11.67;;
22068;SDS011;13887;57.196;-2.100;2023-03-14T11:45:32;12.27;;;11.87;;
22068;SDS011;13887;57.196;-2.100;2023-03-14T11:51:07;12.33;;;11.93;;
22068;SDS011;13887;57.196;-2.100;2023-03-14T11:56:59;11.80;;;11.40;;
22068;SDS011;13887;57.196;-2.100;2023-03-14T11:59:40;12.17;;;11.77;;
22068;SDS011;13887;57.196;-2.100;2023-03-14T12:02:13;12.20;;;11.80;;
22068;SDS011;13887;57.196;-2.100;2023-03-14T12:07:25;12.27;;;11.87;;
22068;SDS011;13887;57.196;-2.100;2023-03-14T12:10:10;11.97;;;11.57;;
22068;SDS011;13887;57.196;-2.100;2023-03-14T12:12:38;11.80;;;11.40;;
22068;SDS011;13887;57.196;-2.100;2023-03-14T12:15:05;12.63;;;12.23;;
22068;SDS011;13887;57.196;-2.100;2023-03-14T12:17:44;12.20;;;11.80;;
22068;SDS011;13887;57.196;-2.100;2023-03-14T12:20:19;12.13;;;11.73;;
22068;SDS011;13887;57.196;-2.100;2023-03-14T12:22:49;11.90;;;11.50;;
22068;SDS011;13887;57.196;-2.100;2023-03-14T12:25:22;12.10;;;11.70;;
22068;SDS011;13887;57.196;-2.100;2023-03-14T12:33:27;11.93;;;11.53;;
22068;SDS011;13887;57.196;-2.100;2023-03-14T12:35:57;11.10;;;10.80;;
22068;SDS011;13887;57.196;-2.100;2023-03-14T12:41:40;11.73;;;11.33;;
22068;SDS011;13887;57.196;-2.100;2023-03-14T12:47:14;12.47;;;12.07;;
22068;SDS011;13887;57.196;-2.100;2023-03-14T12:50:12;12.00;;;11.60;;
22068;SDS011;13887;57.196;-2.100;2023-03-14T12:55:21;12.90;;;12.50;;
22068;SDS011;13887;57.196;-2.100;2023-03-14T12:58:07;12.20;;;11.80;;
22068;SDS011;13887;57.196;-2.100;2023-03-14T13:00:41;12.43;;;12.03;;
22068;SDS011;13887;57.196;-2.100;2023-03-14T13:05:54;12.40;;;12.00;;
22068;SDS011;13887;57.196;-2.100;2023-03-14T13:08:35;12.60;;;12.20;;
22068;SDS011;13887;57.196;-2.100;2023-03-14T13:11:19;11.90;;;11.50;;
22068;SDS011;13887;57.196;-2.100;2023-03-14T13:13:48;13.60;;;13.10;;
22068;SDS011;13887;57.196;-2.100;2023-03-14T13:16:20;12.30;;;11.90;;
22068;SDS011;13887;57.196;-2.100;2023-03-14T13:18:49;12.47;;;12.07;;
22068;SDS011;13887;57.196;-2.100;2023-03-14T13:21:27;12.60;;;12.20;;
22068;SDS011;13887;57.196;-2.100;2023-03-14T13:24:05;12.20;;;11.80;;
22068;SDS011;13887;57.196;-2.100;2023-03-14T13:26:37;11.77;;;11.37;;
22068;SDS011;13887;57.196;-2.100;2023-03-14T13:29:10;12.83;;;12.43;;
22068;SDS011;13887;57.196;-2.100;2023-03-14T13:31:51;12.17;;;11.77;;
22068;SDS011;13887;57.196;-2.100;2023-03-14T13:34:21;12.30;;;11.90;;
22068;SDS011;13887;57.196;-2.100;2023-03-14T13:36:51;12.27;;;11.87;;
22068;SDS011;13887;57.196;-2.100;2023-03-14T13:39:20;12.67;;;12.27;;
22068;SDS011;13887;57.196;-2.100;2023-03-14T13:41:54;12.10;;;11.70;;
22068;SDS011;13887;57.196;-2.100;2023-03-14T13:44:27;11.87;;;11.47;;
22068;SDS011;13887;57.196;-2.100;2023-03-14T13:46:59;12.40;;;12.00;;
22068;SDS011;13887;57.196;-2.100;2023-03-14T13:49:28;12.43;;;12.03;;
22068;SDS011;13887;57.196;-2.100;2023-03-14T13:51:59;12.37;;;11.97;;
22068;SDS011;13887;57.196;-2.100;2023-03-14T13:54:29;12.50;;;12.10;;
22068;SDS011;13887;57.196;-2.100;2023-03-14T13:57:02;12.10;;;11.70;;
22068;SDS011;13887;57.196;-2.100;2023-03-14T13:59:32;12.70;;;12.30;;
22068;SDS011;13887;57.196;-2.100;2023-03-14T14:02:09;12.20;;;11.80;;
22068;SDS011;13887;57.196;-2.100;2023-03-14T14:04:44;12.10;;;11.70;;
22068;SDS011;13887;57.196;-2.100;2023-03-14T14:07:14;11.90;;;11.50;;
22068;SDS011;13887;57.196;-2.100;2023-03-14T14:09:54;11.57;;;11.17;;
22068;SDS011;13887;57.196;-2.100;2023-03-14T14:14:59;12.20;;;11.80;;
22068;SDS011;13887;57.196;-2.100;2023-03-14T14:17:29;12.00;;;11.60;;
22068;SDS011;13887;57.196;-2.100;2023-03-14T14:20:04;12.03;;;11.63;;
22068;SDS011;13887;57.196;-2.100;2023-03-14T14:22:35;12.00;;;11.60;;
22068;SDS011;13887;57.196;-2.100;2023-03-14T14:25:04;11.90;;;11.50;;
22068;SDS011;13887;57.196;-2.100;2023-03-14T14:27:38;11.67;;;11.27;;
22068;SDS011;13887;57.196;-2.100;2023-03-14T14:32:46;12.20;;;11.80;;
22068;SDS011;13887;57.196;-2.100;2023-03-14T14:35:24;12.20;;;11.80;;
22068;SDS011;13887;57.196;-2.100;2023-03-14T14:37:57;12.57;;;12.17;;
22068;SDS011;13887;57.196;-2.100;2023-03-14T14:40:25;12.57;;;12.17;;
22068;SDS011;13887;57.196;-2.100;2023-03-14T14:42:54;12.97;;;12.57;;
22068;SDS011;13887;57.196;-2.100;2023-03-14T14:45:29;12.23;;;11.83;;
22068;SDS011;13887;57.196;-2.100;2023-03-14T14:48:02;12.30;;;11.90;;
22068;SDS011;13887;57.196;-2.100;2023-03-14T14:50:34;12.40;;;12.00;;
22068;SDS011;13887;57.196;-2.100;2023-03-14T14:53:25;12.40;;;12.00;;
22068;SDS011;13887;57.196;-2.100;2023-03-14T14:55:56;12.80;;;12.40;;
22068;SDS011;13887;57.196;-2.100;2023-03-14T14:58:29;12.87;;;12.47;;
22068;SDS011;13887;57.196;-2.100;2023-03-14T15:01:07;12.13;;;11.73;;
22068;SDS011;13887;57.196;-2.100;2023-03-14T15:03:36;12.70;;;12.30;;
22068;SDS011;13887;57.196;-2.100;2023-03-14T15:06:04;12.60;;;12.20;;
22068;SDS011;13887;57.196;-2.100;2023-03-14T15:08:31;12.80;;;12.40;;
22068;SDS011;13887;57.196;-2.100;2023-03-14T15:11:03;12.87;;;12.47;;
22068;SDS011;13887;57.196;-2.100;2023-03-14T15:13:31;12.70;;;12.30;;
22068;SDS011;13887;57.196;-2.100;2023-03-14T15:15:58;12.37;;;11.97;;
22068;SDS011;13887;57.196;-2.100;2023-03-14T15:18:27;12.37;;;11.97;;
22068;SDS011;13887;57.196;-2.100;2023-03-14T15:20:57;11.70;;;11.30;;
22068;SDS011;13887;57.196;-2.100;2023-03-14T15:23:24;12.33;;;11.93;;
22068;SDS011;13887;57.196;-2.100;2023-03-14T15:25:51;12.60;;;12.20;;
22068;SDS011;13887;57.196;-2.100;2023-03-14T15:28:25;12.63;;;12.23;;
22068;SDS011;13887;57.196;-2.100;2023-03-14T15:30:58;12.20;;;11.80;;
22068;SDS011;13887;57.196;-2.100;2023-03-14T15:33:26;12.40;;;12.00;;
22068;SDS011;13887;57.196;-2.100;2023-03-14T15:35:53;12.27;;;11.87;;